Time;durP1;ratioP1;P1;durP2;ratioP2;P2;SDS_P1;SDS_P2;PMS_P1;PMS_P2;Temp;Humidity;BMP_temperature;BMP_pressure;BME280_temperature;BME280_humidity;BME280_pressure;Samples;Min_cycle;Max_cycle;Signal;HPM_P1;HPM_P2
2022/11/16 00:00:09;;;;;;;0.7;0.7;;;;;;;12.0;100.0;99630;;;;
2022/11/16 00:01:01;;;;;;;0.7;0.7;;;;;;;12.1;100.0;99620;;;;
2022/11/16 00:02:00;;;;;;;0.7;0.7;;;;;;;12.1;100.0;99620;;;;
2022/11/16 00:03:01;;;;;;;0.7;0.7;;;;;;;12.0;100.0;99620;;;;
2022/11/16 00:04:01;;;;;;;0.7;0.7;;;;;;;12.0;100.0;99620;;;;
2022/11/16 00:05:00;;;;;;;0.7;0.7;;;;;;;11.9;100.0;99630;;;;
2022/11/16 00:06:01;;;;;;;0.7;0.7;;;;;;;11.9;100.0;99630;;;;
2022/11/16 00:07:01;;;;;;;0.7;0.7;;;;;;;11.9;100.0;99620;;;;
2022/11/16 00:08:00;;;;;;;0.7;0.7;;;;;;;11.9;100.0;99620;;;;
2022/11/16 00:10:00;;;;;;;0.7;0.7;;;;;;;11.8;100.0;99620;;;;
2022/11/16 00:11:05;;;;;;;0.7;0.7;;;;;;;11.9;100.0;99620;;;;
2022/11/16 00:12:03;;;;;;;0.7;0.7;;;;;;;11.9;100.0;99620;;;;
2022/11/16 00:13:00;;;;;;;0.7;0.7;;;;;;;11.9;100.0;99620;;;;
2022/11/16 00:14:00;;;;;;;0.7;0.7;;;;;;;11.9;100.0;99620;;;;
2022/11/16 00:15:00;;;;;;;0.7;0.7;;;;;;;12.0;100.0;99620;;;;
2022/11/16 00:16:00;;;;;;;0.7;0.7;;;;;;;12.0;100.0;99620;;;;
2022/11/16 00:17:00;;;;;;;0.7;0.7;;;;;;;11.8;100.0;99620;;;;
2022/11/16 00:18:00;;;;;;;0.7;0.7;;;;;;;11.8;100.0;99620;;;;
2022/11/16 00:19:02;;;;;;;0.7;0.7;;;;;;;11.8;100.0;99620;;;;
2022/11/16 00:20:00;;;;;;;0.8;0.8;;;;;;;11.8;100.0;99620;;;;
2022/11/16 00:21:02;;;;;;;0.8;0.8;;;;;;;11.9;100.0;99620;;;;
2022/11/16 00:22:00;;;;;;;0.8;0.8;;;;;;;11.9;100.0;99620;;;;
2022/11/16 00:23:00;;;;;;;0.8;0.8;;;;;;;12.0;100.0;99620;;;;
2022/11/16 00:24:00;;;;;;;0.8;0.8;;;;;;;12.0;100.0;99620;;;;
2022/11/16 00:25:00;;;;;;;0.8;0.8;;;;;;;11.9;100.0;99620;;;;
2022/11/16 00:26:08;;;;;;;0.8;0.8;;;;;;;11.9;100.0;99620;;;;
2022/11/16 00:27:00;;;;;;;0.8;0.8;;;;;;;12.0;100.0;99620;;;;
2022/11/16 00:28:00;;;;;;;0.8;0.8;;;;;;;12.0;100.0;99620;;;;
2022/11/16 00:29:00;;;;;;;0.8;0.8;;;;;;;12.1;100.0;99620;;;;
2022/11/16 00:30:00;;;;;;;0.8;0.8;;;;;;;12.1;100.0;99620;;;;
2022/11/16 00:31:01;;;;;;;0.8;0.8;;;;;;;12.1;100.0;99630;;;;
2022/11/16 00:32:00;;;;;;;0.8;0.8;;;;;;;12.1;100.0;99630;;;;
2022/11/16 00:33:00;;;;;;;0.8;0.8;;;;;;;12.0;100.0;99630;;;;
2022/11/16 00:34:00;;;;;;;0.8;0.8;;;;;;;12.0;100.0;99630;;;;
2022/11/16 00:35:00;;;;;;;0.8;0.8;;;;;;;12.1;100.0;99630;;;;
2022/11/16 00:36:00;;;;;;;0.8;0.8;;;;;;;12.1;100.0;99630;;;;
2022/11/16 00:37:00;;;;;;;0.8;0.8;;;;;;;12.0;100.0;99630;;;;
2022/11/16 00:38:00;;;;;;;0.8;0.8;;;;;;;12.0;100.0;99630;;;;
2022/11/16 00:39:00;;;;;;;0.8;0.8;;;;;;;12.0;100.0;99640;;;;
2022/11/16 00:40:00;;;;;;;0.9;0.9;;;;;;;12.0;100.0;99640;;;;
2022/11/16 00:41:00;;;;;;;0.9;0.9;;;;;;;12.1;100.0;99630;;;;
2022/11/16 00:42:00;;;;;;;0.9;0.9;;;;;;;12.1;100.0;99630;;;;
2022/11/16 00:43:00;;;;;;;0.9;0.9;;;;;;;12.1;100.0;99630;;;;
2022/11/16 00:44:00;;;;;;;0.9;0.9;;;;;;;12.1;100.0;99630;;;;
2022/11/16 00:45:00;;;;;;;0.9;0.9;;;;;;;12.0;100.0;99630;;;;
2022/11/16 00:46:00;;;;;;;0.9;0.9;;;;;;;12.0;100.0;99630;;;;
2022/11/16 00:47:00;;;;;;;0.9;0.9;;;;;;;12.1;100.0;99630;;;;
2022/11/16 00:48:00;;;;;;;0.9;0.9;;;;;;;12.1;100.0;99630;;;;
2022/11/16 00:49:00;;;;;;;0.9;0.9;;;;;;;12.2;100.0;99620;;;;
2022/11/16 00:50:00;;;;;;;0.9;0.9;;;;;;;12.2;100.0;99620;;;;
2022/11/16 00:51:00;;;;;;;0.9;0.9;;;;;;;12.1;100.0;99620;;;;
2022/11/16 00:52:00;;;;;;;0.9;0.9;;;;;;;12.1;100.0;99620;;;;
2022/11/16 00:53:00;;;;;;;0.9;0.9;;;;;;;12.1;100.0;99630;;;;
2022/11/16 00:54:00;;;;;;;0.9;0.9;;;;;;;12.1;100.0;99630;;;;
2022/11/16 00:55:00;;;;;;;0.9;0.9;;;;;;;12.1;100.0;99630;;;;
2022/11/16 00:56:00;;;;;;;0.9;0.9;;;;;;;12.1;100.0;99630;;;;
2022/11/16 00:57:00;;;;;;;0.9;0.9;;;;;;;12.0;100.0;99650;;;;
2022/11/16 00:58:00;;;;;;;0.9;0.9;;;;;;;12.0;100.0;99650;;;;
2022/11/16 00:59:00;;;;;;;0.9;0.9;;;;;;;12.1;100.0;99640;;;;
2022/11/16 01:00:00;;;;;;;0.6;0.6;;;;;;;12.1;100.0;99640;;;;
2022/11/16 01:01:03;;;;;;;0.6;0.6;;;;;;;12.1;100.0;99640;;;;
2022/11/16 01:02:00;;;;;;;0.6;0.6;;;;;;;12.1;100.0;99640;;;;
2022/11/16 01:03:00;;;;;;;0.6;0.6;;;;;;;12.1;100.0;99630;;;;
2022/11/16 01:04:00;;;;;;;0.6;0.6;;;;;;;12.1;100.0;99630;;;;
2022/11/16 01:05:00;;;;;;;0.6;0.6;;;;;;;12.0;100.0;99630;;;;
2022/11/16 01:06:02;;;;;;;0.6;0.6;;;;;;;12.0;100.0;99630;;;;
2022/11/16 01:07:00;;;;;;;0.6;0.6;;;;;;;12.0;100.0;99620;;;;
2022/11/16 01:08:00;;;;;;;0.6;0.6;;;;;;;12.0;100.0;99620;;;;
2022/11/16 01:09:00;;;;;;;0.6;0.6;;;;;;;11.9;100.0;99610;;;;
2022/11/16 01:10:00;;;;;;;0.6;0.6;;;;;;;11.9;100.0;99610;;;;
2022/11/16 01:12:07;;;;;;;0.6;0.6;;;;;;;12.0;100.0;99610;;;;
2022/11/16 01:13:00;;;;;;;0.6;0.6;;;;;;;12.0;100.0;99600;;;;
2022/11/16 01:14:01;;;;;;;0.6;0.6;;;;;;;12.0;100.0;99600;;;;
2022/11/16 01:15:00;;;;;;;0.6;0.6;;;;;;;11.9;100.0;99600;;;;
2022/11/16 01:16:00;;;;;;;0.6;0.6;;;;;;;11.9;100.0;99600;;;;
2022/11/16 01:17:00;;;;;;;0.6;0.6;;;;;;;12.0;100.0;99600;;;;
2022/11/16 01:18:00;;;;;;;0.6;0.6;;;;;;;12.0;100.0;99600;;;;
2022/11/16 01:19:00;;;;;;;0.6;0.6;;;;;;;11.9;100.0;99590;;;;
2022/11/16 01:20:00;;;;;;;0.8;0.8;;;;;;;11.9;100.0;99590;;;;
2022/11/16 01:21:00;;;;;;;0.8;0.8;;;;;;;11.8;100.0;99590;;;;
2022/11/16 01:22:00;;;;;;;0.8;0.8;;;;;;;11.8;100.0;99590;;;;
2022/11/16 01:23:00;;;;;;;0.8;0.8;;;;;;;11.9;100.0;99600;;;;
2022/11/16 01:24:00;;;;;;;0.8;0.8;;;;;;;11.9;100.0;99600;;;;
2022/11/16 01:25:00;;;;;;;0.8;0.8;;;;;;;11.8;100.0;99600;;;;
2022/11/16 01:26:01;;;;;;;0.8;0.8;;;;;;;11.8;100.0;99600;;;;
2022/11/16 01:27:00;;;;;;;0.8;0.8;;;;;;;11.9;100.0;99590;;;;
2022/11/16 01:28:00;;;;;;;0.8;0.8;;;;;;;11.9;100.0;99590;;;;
2022/11/16 01:29:00;;;;;;;0.8;0.8;;;;;;;11.9;100.0;99600;;;;
2022/11/16 01:30:00;;;;;;;0.8;0.8;;;;;;;11.9;100.0;99600;;;;
2022/11/16 01:31:00;;;;;;;0.8;0.8;;;;;;;11.9;100.0;99610;;;;
2022/11/16 01:32:00;;;;;;;0.8;0.8;;;;;;;11.9;100.0;99610;;;;
2022/11/16 01:33:00;;;;;;;0.8;0.8;;;;;;;12.1;100.0;99610;;;;
2022/11/16 01:34:00;;;;;;;0.8;0.8;;;;;;;12.1;100.0;99610;;;;
2022/11/16 01:35:00;;;;;;;0.8;0.8;;;;;;;12.1;100.0;99610;;;;
2022/11/16 01:36:00;;;;;;;0.8;0.8;;;;;;;12.1;100.0;99610;;;;
2022/11/16 01:37:00;;;;;;;0.8;0.8;;;;;;;12.1;100.0;99600;;;;
2022/11/16 01:38:00;;;;;;;0.8;0.8;;;;;;;12.1;100.0;99600;;;;
2022/11/16 01:39:00;;;;;;;0.8;0.8;;;;;;;12.1;100.0;99590;;;;
2022/11/16 01:40:00;;;;;;;0.7;0.7;;;;;;;12.1;100.0;99590;;;;
2022/11/16 01:41:00;;;;;;;0.7;0.7;;;;;;;12.1;100.0;99580;;;;
2022/11/16 01:42:00;;;;;;;0.7;0.7;;;;;;;12.1;100.0;99580;;;;
2022/11/16 01:43:00;;;;;;;0.7;0.7;;;;;;;12.0;100.0;99580;;;;
2022/11/16 01:44:02;;;;;;;0.7;0.7;;;;;;;12.0;100.0;99580;;;;
2022/11/16 01:45:02;;;;;;;0.7;0.7;;;;;;;12.1;100.0;99580;;;;
2022/11/16 01:46:00;;;;;;;0.7;0.7;;;;;;;12.1;100.0;99580;;;;
2022/11/16 01:47:02;;;;;;;0.7;0.7;;;;;;;12.0;100.0;99570;;;;
2022/11/16 01:48:00;;;;;;;0.7;0.7;;;;;;;12.0;100.0;99570;;;;
2022/11/16 01:49:04;;;;;;;0.7;0.7;;;;;;;12.2;100.0;99580;;;;
2022/11/16 01:50:02;;;;;;;0.7;0.7;;;;;;;12.2;100.0;99580;;;;
2022/11/16 01:51:00;;;;;;;0.7;0.7;;;;;;;12.1;100.0;99580;;;;
2022/11/16 01:52:01;;;;;;;0.7;0.7;;;;;;;12.1;100.0;99580;;;;
2022/11/16 01:53:03;;;;;;;0.7;0.7;;;;;;;12.0;100.0;99580;;;;
2022/11/16 01:54:01;;;;;;;0.7;0.7;;;;;;;12.0;100.0;99580;;;;
2022/11/16 01:55:01;;;;;;;0.7;0.7;;;;;;;12.1;100.0;99580;;;;
2022/11/16 01:56:00;;;;;;;0.7;0.7;;;;;;;12.1;100.0;99580;;;;
2022/11/16 01:57:01;;;;;;;0.7;0.7;;;;;;;11.9;100.0;99570;;;;
2022/11/16 01:58:00;;;;;;;0.7;0.7;;;;;;;11.9;100.0;99570;;;;
2022/11/16 01:59:00;;;;;;;0.7;0.7;;;;;;;12.1;100.0;99570;;;;
2022/11/16 02:00:01;;;;;;;0.6;0.6;;;;;;;12.1;100.0;99570;;;;
2022/11/16 02:01:00;;;;;;;0.6;0.6;;;;;;;12.0;100.0;99580;;;;
2022/11/16 02:02:00;;;;;;;0.6;0.6;;;;;;;12.0;100.0;99580;;;;
2022/11/16 02:03:00;;;;;;;0.6;0.6;;;;;;;12.1;100.0;99570;;;;
2022/11/16 02:04:00;;;;;;;0.6;0.6;;;;;;;12.1;100.0;99570;;;;
2022/11/16 02:05:01;;;;;;;0.6;0.6;;;;;;;12.0;100.0;99570;;;;
2022/11/16 02:06:10;;;;;;;0.6;0.6;;;;;;;12.0;100.0;99570;;;;
2022/11/16 02:07:01;;;;;;;0.6;0.6;;;;;;;12.1;100.0;99570;;;;
2022/11/16 02:10:00;;;;;;;0.6;0.6;;;;;;;12.0;100.0;99570;;;;
2022/11/16 02:11:07;;;;;;;0.6;0.6;;;;;;;11.9;100.0;99570;;;;
2022/11/16 02:12:07;;;;;;;0.6;0.6;;;;;;;11.9;100.0;99570;;;;
2022/11/16 02:13:11;;;;;;;0.6;0.6;;;;;;;12.1;100.0;99570;;;;
2022/11/16 02:14:00;;;;;;;0.6;0.6;;;;;;;12.1;100.0;99570;;;;
2022/11/16 02:15:10;;;;;;;0.6;0.6;;;;;;;12.1;100.0;99570;;;;
2022/11/16 02:16:10;;;;;;;0.6;0.6;;;;;;;12.1;100.0;99570;;;;
2022/11/16 02:17:10;;;;;;;0.6;0.6;;;;;;;11.9;100.0;99560;;;;
2022/11/16 02:18:10;;;;;;;0.6;0.6;;;;;;;11.9;100.0;99560;;;;
2022/11/16 02:19:10;;;;;;;1.8;1.7;;;;;;;12.1;100.0;99570;;;;
2022/11/16 02:20:08;;;;;;;1.8;1.7;;;;;;;12.1;100.0;99570;;;;
2022/11/16 02:21:01;;;;;;;1.8;1.7;;;;;;;12.1;100.0;99560;;;;
2022/11/16 02:22:06;;;;;;;1.8;1.7;;;;;;;12.1;100.0;99560;;;;
2022/11/16 02:23:10;;;;;;;1.8;1.7;;;;;;;12.0;100.0;99560;;;;
2022/11/16 02:24:00;;;;;;;1.8;1.7;;;;;;;12.0;100.0;99560;;;;
2022/11/16 02:25:07;;;;;;;1.8;1.7;;;;;;;11.9;100.0;99560;;;;
2022/11/16 02:26:00;;;;;;;1.8;1.7;;;;;;;11.9;100.0;99560;;;;
2022/11/16 02:27:01;;;;;;;1.8;1.7;;;;;;;11.9;100.0;99550;;;;
2022/11/16 02:28:10;;;;;;;1.8;1.7;;;;;;;11.9;100.0;99550;;;;
2022/11/16 02:29:10;;;;;;;1.8;1.7;;;;;;;12.0;100.0;99550;;;;
2022/11/16 02:30:00;;;;;;;1.8;1.7;;;;;;;12.0;100.0;99550;;;;
2022/11/16 02:31:03;;;;;;;1.8;1.7;;;;;;;12.0;100.0;99550;;;;
2022/11/16 02:32:04;;;;;;;1.8;1.7;;;;;;;12.0;100.0;99550;;;;
2022/11/16 02:33:03;;;;;;;1.8;1.7;;;;;;;12.0;100.0;99550;;;;
2022/11/16 02:34:00;;;;;;;1.8;1.7;;;;;;;12.0;100.0;99550;;;;
2022/11/16 02:35:10;;;;;;;1.8;1.7;;;;;;;12.2;100.0;99550;;;;
2022/11/16 02:36:01;;;;;;;1.8;1.7;;;;;;;12.2;100.0;99550;;;;
2022/11/16 02:37:02;;;;;;;1.8;1.7;;;;;;;12.2;100.0;99540;;;;
2022/11/16 02:38:10;;;;;;;1.8;1.7;;;;;;;12.2;100.0;99540;;;;
2022/11/16 02:39:03;;;;;;;0.8;0.8;;;;;;;12.1;100.0;99550;;;;
2022/11/16 02:40:03;;;;;;;0.8;0.8;;;;;;;12.1;100.0;99550;;;;
2022/11/16 02:41:04;;;;;;;0.8;0.8;;;;;;;12.1;100.0;99550;;;;
2022/11/16 02:42:01;;;;;;;0.8;0.8;;;;;;;12.1;100.0;99550;;;;
2022/11/16 02:43:05;;;;;;;0.8;0.8;;;;;;;12.0;100.0;99550;;;;
2022/11/16 02:44:06;;;;;;;0.8;0.8;;;;;;;12.0;100.0;99550;;;;
2022/11/16 02:45:02;;;;;;;0.8;0.8;;;;;;;12.0;100.0;99550;;;;
2022/11/16 02:46:02;;;;;;;0.8;0.8;;;;;;;12.0;100.0;99550;;;;
2022/11/16 02:47:03;;;;;;;0.8;0.8;;;;;;;12.0;100.0;99560;;;;
2022/11/16 02:48:02;;;;;;;0.8;0.8;;;;;;;12.0;100.0;99560;;;;
2022/11/16 02:49:02;;;;;;;0.8;0.8;;;;;;;12.0;100.0;99550;;;;
2022/11/16 02:50:10;;;;;;;0.8;0.8;;;;;;;12.0;100.0;99550;;;;
2022/11/16 02:51:01;;;;;;;0.8;0.8;;;;;;;12.0;100.0;99560;;;;
2022/11/16 02:52:00;;;;;;;0.8;0.8;;;;;;;12.0;100.0;99560;;;;
2022/11/16 02:53:00;;;;;;;0.8;0.8;;;;;;;12.1;100.0;99550;;;;
2022/11/16 02:54:02;;;;;;;0.8;0.8;;;;;;;12.1;100.0;99550;;;;
2022/11/16 02:55:00;;;;;;;0.8;0.8;;;;;;;12.2;100.0;99550;;;;
2022/11/16 02:56:00;;;;;;;0.8;0.8;;;;;;;12.2;100.0;99550;;;;
2022/11/16 02:57:01;;;;;;;0.8;0.8;;;;;;;12.1;100.0;99560;;;;
2022/11/16 02:58:01;;;;;;;0.8;0.8;;;;;;;12.1;100.0;99560;;;;
2022/11/16 02:59:00;;;;;;;0.7;0.7;;;;;;;12.2;100.0;99560;;;;
2022/11/16 03:00:01;;;;;;;0.7;0.7;;;;;;;12.2;100.0;99560;;;;
2022/11/16 03:01:05;;;;;;;0.7;0.7;;;;;;;12.2;100.0;99560;;;;
2022/11/16 03:02:10;;;;;;;0.7;0.7;;;;;;;12.2;100.0;99560;;;;
2022/11/16 03:03:06;;;;;;;0.7;0.7;;;;;;;12.1;100.0;99560;;;;
2022/11/16 03:04:04;;;;;;;0.7;0.7;;;;;;;12.1;100.0;99560;;;;
2022/11/16 03:05:10;;;;;;;0.7;0.7;;;;;;;12.2;100.0;99560;;;;
2022/11/16 03:06:02;;;;;;;0.7;0.7;;;;;;;12.2;100.0;99560;;;;
2022/11/16 03:07:03;;;;;;;0.7;0.7;;;;;;;12.1;100.0;99550;;;;
2022/11/16 03:08:03;;;;;;;0.7;0.7;;;;;;;12.1;100.0;99550;;;;
2022/11/16 03:09:04;;;;;;;0.7;0.7;;;;;;;12.2;100.0;99550;;;;
2022/11/16 03:10:00;;;;;;;0.7;0.7;;;;;;;12.2;100.0;99550;;;;
2022/11/16 03:12:01;;;;;;;0.7;0.7;;;;;;;12.1;100.0;99560;;;;
2022/11/16 03:13:01;;;;;;;0.7;0.7;;;;;;;12.1;100.0;99560;;;;
2022/11/16 03:14:04;;;;;;;0.7;0.7;;;;;;;12.1;100.0;99560;;;;
2022/11/16 03:15:02;;;;;;;0.7;0.7;;;;;;;12.1;100.0;99570;;;;
2022/11/16 03:16:02;;;;;;;0.7;0.7;;;;;;;12.1;100.0;99570;;;;
2022/11/16 03:17:01;;;;;;;0.7;0.7;;;;;;;12.1;100.0;99570;;;;
2022/11/16 03:18:00;;;;;;;0.7;0.7;;;;;;;12.1;100.0;99570;;;;
2022/11/16 03:19:02;;;;;;;0.6;0.6;;;;;;;12.1;100.0;99570;;;;
2022/11/16 03:20:03;;;;;;;0.6;0.6;;;;;;;12.1;100.0;99570;;;;
2022/11/16 03:21:05;;;;;;;0.6;0.6;;;;;;;12.1;100.0;99580;;;;
2022/11/16 03:22:05;;;;;;;0.6;0.6;;;;;;;12.1;100.0;99580;;;;
2022/11/16 03:23:03;;;;;;;0.6;0.6;;;;;;;12.2;100.0;99570;;;;
2022/11/16 03:24:00;;;;;;;0.6;0.6;;;;;;;12.2;100.0;99570;;;;
2022/11/16 03:25:00;;;;;;;0.6;0.6;;;;;;;12.2;100.0;99570;;;;
2022/11/16 03:26:04;;;;;;;0.6;0.6;;;;;;;12.2;100.0;99570;;;;
2022/11/16 03:27:10;;;;;;;0.6;0.6;;;;;;;12.1;100.0;99570;;;;
2022/11/16 03:28:07;;;;;;;0.6;0.6;;;;;;;12.1;100.0;99570;;;;
2022/11/16 03:29:01;;;;;;;0.6;0.6;;;;;;;12.0;100.0;99560;;;;
2022/11/16 03:30:03;;;;;;;0.6;0.6;;;;;;;12.0;100.0;99560;;;;
2022/11/16 03:31:04;;;;;;;0.6;0.6;;;;;;;12.0;100.0;99560;;;;
2022/11/16 03:32:09;;;;;;;0.6;0.6;;;;;;;12.0;100.0;99560;;;;
2022/11/16 03:33:09;;;;;;;0.6;0.6;;;;;;;12.0;100.0;99560;;;;
2022/11/16 03:34:04;;;;;;;0.6;0.6;;;;;;;12.0;100.0;99560;;;;
2022/11/16 03:35:05;;;;;;;0.6;0.6;;;;;;;12.0;100.0;99570;;;;
2022/11/16 03:36:10;;;;;;;0.6;0.6;;;;;;;12.0;100.0;99570;;;;
2022/11/16 03:37:02;;;;;;;0.6;0.6;;;;;;;12.1;100.0;99560;;;;
2022/11/16 03:38:01;;;;;;;0.6;0.6;;;;;;;12.1;100.0;99560;;;;
2022/11/16 03:39:03;;;;;;;0.7;0.7;;;;;;;12.1;100.0;99560;;;;
2022/11/16 03:40:01;;;;;;;0.7;0.7;;;;;;;12.1;100.0;99560;;;;
2022/11/16 03:41:01;;;;;;;0.7;0.7;;;;;;;12.0;100.0;99560;;;;
2022/11/16 03:42:01;;;;;;;0.7;0.7;;;;;;;12.0;100.0;99560;;;;
2022/11/16 03:43:00;;;;;;;0.7;0.7;;;;;;;11.9;100.0;99570;;;;
2022/11/16 03:44:00;;;;;;;0.7;0.7;;;;;;;11.9;100.0;99570;;;;
2022/11/16 03:45:00;;;;;;;0.7;0.7;;;;;;;11.9;100.0;99570;;;;
2022/11/16 03:46:00;;;;;;;0.7;0.7;;;;;;;11.9;100.0;99570;;;;
2022/11/16 03:47:00;;;;;;;0.7;0.7;;;;;;;11.8;100.0;99580;;;;
2022/11/16 03:48:00;;;;;;;0.7;0.7;;;;;;;11.8;100.0;99580;;;;
2022/11/16 03:49:00;;;;;;;0.7;0.7;;;;;;;11.8;100.0;99580;;;;
2022/11/16 03:50:00;;;;;;;0.7;0.7;;;;;;;11.8;100.0;99580;;;;
2022/11/16 03:51:00;;;;;;;0.7;0.7;;;;;;;11.8;100.0;99580;;;;
2022/11/16 03:52:00;;;;;;;0.7;0.7;;;;;;;11.8;100.0;99580;;;;
2022/11/16 03:53:00;;;;;;;0.7;0.7;;;;;;;11.8;100.0;99580;;;;
2022/11/16 03:54:00;;;;;;;0.7;0.7;;;;;;;11.8;100.0;99580;;;;
2022/11/16 03:55:00;;;;;;;0.7;0.7;;;;;;;11.9;100.0;99580;;;;
2022/11/16 03:56:00;;;;;;;0.7;0.7;;;;;;;11.9;100.0;99580;;;;
2022/11/16 03:57:00;;;;;;;0.7;0.7;;;;;;;11.8;100.0;99580;;;;
2022/11/16 03:58:00;;;;;;;0.7;0.7;;;;;;;11.8;100.0;99580;;;;
2022/11/16 03:59:00;;;;;;;0.7;0.7;;;;;;;11.9;100.0;99580;;;;
2022/11/16 04:00:00;;;;;;;0.7;0.7;;;;;;;11.9;100.0;99580;;;;
2022/11/16 04:01:02;;;;;;;0.7;0.7;;;;;;;11.8;100.0;99580;;;;
2022/11/16 04:02:00;;;;;;;0.7;0.7;;;;;;;11.8;100.0;99580;;;;
2022/11/16 04:03:00;;;;;;;0.7;0.7;;;;;;;11.8;100.0;99590;;;;
2022/11/16 04:04:00;;;;;;;0.7;0.7;;;;;;;11.8;100.0;99590;;;;
2022/11/16 04:25:07;;;;;;;1.0;1.0;;;;;;;11.5;100.0;99610;;;;
2022/11/16 04:26:00;;;;;;;1.0;1.0;;;;;;;11.5;100.0;99610;;;;
2022/11/16 04:29:00;;;;;;;1.0;1.0;;;;;;;11.4;100.0;99610;;;;
2022/11/16 04:30:01;;;;;;;1.0;1.0;;;;;;;11.4;100.0;99610;;;;
2022/11/16 04:38:00;;;;;;;1.0;1.0;;;;;;;11.3;100.0;99610;;;;
2022/11/16 04:39:00;;;;;;;0.9;0.9;;;;;;;11.3;100.0;99620;;;;
2022/11/16 04:40:00;;;;;;;0.9;0.9;;;;;;;11.3;100.0;99620;;;;
2022/11/16 04:41:00;;;;;;;0.9;0.9;;;;;;;11.3;100.0;99610;;;;
2022/11/16 04:43:00;;;;;;;0.9;0.9;;;;;;;11.3;100.0;99620;;;;
2022/11/16 04:44:00;;;;;;;0.9;0.9;;;;;;;11.3;100.0;99620;;;;
2022/11/16 04:47:07;;;;;;;0.9;0.9;;;;;;;11.2;100.0;99630;;;;
2022/11/16 04:48:00;;;;;;;0.9;0.9;;;;;;;11.2;100.0;99630;;;;
2022/11/16 04:49:00;;;;;;;0.9;0.9;;;;;;;11.2;100.0;99630;;;;
2022/11/16 04:50:00;;;;;;;0.9;0.9;;;;;;;11.2;100.0;99630;;;;
2022/11/16 04:51:00;;;;;;;0.9;0.9;;;;;;;11.2;100.0;99640;;;;
2022/11/16 04:52:00;;;;;;;0.9;0.9;;;;;;;11.2;100.0;99640;;;;
2022/11/16 04:53:00;;;;;;;0.9;0.9;;;;;;;11.2;100.0;99640;;;;
2022/11/16 04:54:00;;;;;;;0.9;0.9;;;;;;;11.2;100.0;99640;;;;
2022/11/16 04:55:00;;;;;;;0.9;0.9;;;;;;;11.1;100.0;99640;;;;
2022/11/16 04:56:01;;;;;;;0.9;0.9;;;;;;;11.1;100.0;99640;;;;
2022/11/16 04:57:00;;;;;;;0.9;0.9;;;;;;;11.2;100.0;99640;;;;
2022/11/16 04:58:00;;;;;;;0.9;0.9;;;;;;;11.2;100.0;99640;;;;
2022/11/16 04:59:00;;;;;;;0.9;0.9;;;;;;;11.2;100.0;99650;;;;
2022/11/16 05:00:00;;;;;;;0.9;0.9;;;;;;;11.2;100.0;99650;;;;
2022/11/16 05:01:00;;;;;;;0.9;0.9;;;;;;;11.1;100.0;99650;;;;
2022/11/16 05:02:07;;;;;;;0.9;0.9;;;;;;;11.1;100.0;99650;;;;
2022/11/16 05:03:02;;;;;;;0.9;0.9;;;;;;;11.2;100.0;99650;;;;
2022/11/16 05:04:00;;;;;;;0.9;0.9;;;;;;;11.2;100.0;99650;;;;
2022/11/16 05:05:00;;;;;;;0.9;0.9;;;;;;;11.1;100.0;99650;;;;
2022/11/16 05:06:00;;;;;;;0.9;0.9;;;;;;;11.1;100.0;99650;;;;
2022/11/16 05:07:00;;;;;;;0.9;0.9;;;;;;;11.1;100.0;99650;;;;
2022/11/16 05:08:00;;;;;;;0.9;0.9;;;;;;;11.1;100.0;99650;;;;
2022/11/16 05:09:00;;;;;;;0.9;0.9;;;;;;;11.1;100.0;99650;;;;
2022/11/16 05:10:00;;;;;;;0.9;0.9;;;;;;;11.1;100.0;99650;;;;
2022/11/16 05:11:00;;;;;;;0.9;0.9;;;;;;;11.2;100.0;99650;;;;
2022/11/16 05:12:00;;;;;;;0.9;0.9;;;;;;;11.2;100.0;99650;;;;
2022/11/16 05:13:00;;;;;;;0.9;0.9;;;;;;;11.2;100.0;99650;;;;
2022/11/16 05:14:01;;;;;;;0.9;0.9;;;;;;;11.2;100.0;99650;;;;
2022/11/16 05:15:00;;;;;;;0.9;0.9;;;;;;;11.1;100.0;99660;;;;
2022/11/16 05:16:00;;;;;;;0.9;0.9;;;;;;;11.1;100.0;99660;;;;
2022/11/16 05:17:00;;;;;;;0.9;0.9;;;;;;;11.1;100.0;99660;;;;
2022/11/16 05:18:00;;;;;;;0.9;0.9;;;;;;;11.1;100.0;99660;;;;
2022/11/16 05:21:00;;;;;;;0.7;0.7;;;;;;;11.1;100.0;99670;;;;
2022/11/16 05:22:00;;;;;;;0.7;0.7;;;;;;;11.1;100.0;99670;;;;
2022/11/16 05:23:00;;;;;;;0.7;0.7;;;;;;;11.0;100.0;99670;;;;
2022/11/16 05:25:00;;;;;;;0.7;0.7;;;;;;;11.1;100.0;99670;;;;
2022/11/16 05:26:00;;;;;;;0.7;0.7;;;;;;;11.1;100.0;99670;;;;
2022/11/16 05:27:01;;;;;;;0.7;0.7;;;;;;;11.0;100.0;99660;;;;
2022/11/16 05:28:00;;;;;;;0.7;0.7;;;;;;;11.0;100.0;99660;;;;
2022/11/16 05:29:00;;;;;;;0.7;0.7;;;;;;;10.9;100.0;99660;;;;
2022/11/16 05:30:00;;;;;;;0.7;0.7;;;;;;;10.9;100.0;99660;;;;
2022/11/16 05:31:00;;;;;;;0.7;0.7;;;;;;;10.9;100.0;99660;;;;
2022/11/16 05:32:00;;;;;;;0.7;0.7;;;;;;;10.9;100.0;99660;;;;
2022/11/16 05:33:00;;;;;;;0.7;0.7;;;;;;;10.9;100.0;99660;;;;
2022/11/16 05:34:00;;;;;;;0.7;0.7;;;;;;;10.9;100.0;99660;;;;
2022/11/16 05:35:00;;;;;;;0.7;0.7;;;;;;;10.9;100.0;99660;;;;
2022/11/16 05:36:00;;;;;;;0.7;0.7;;;;;;;10.9;100.0;99660;;;;
2022/11/16 05:37:00;;;;;;;0.7;0.7;;;;;;;10.9;100.0;99660;;;;
2022/11/16 05:38:00;;;;;;;0.7;0.7;;;;;;;10.9;100.0;99660;;;;
2022/11/16 05:39:00;;;;;;;0.8;0.8;;;;;;;10.8;100.0;99660;;;;
2022/11/16 05:40:00;;;;;;;0.8;0.8;;;;;;;10.8;100.0;99660;;;;
2022/11/16 05:41:00;;;;;;;0.8;0.8;;;;;;;10.9;100.0;99660;;;;
2022/11/16 05:42:00;;;;;;;0.8;0.8;;;;;;;10.9;100.0;99660;;;;
2022/11/16 05:43:00;;;;;;;0.8;0.8;;;;;;;10.8;100.0;99660;;;;
2022/11/16 05:44:00;;;;;;;0.8;0.8;;;;;;;10.8;100.0;99660;;;;
2022/11/16 05:45:00;;;;;;;0.8;0.8;;;;;;;10.8;100.0;99660;;;;
2022/11/16 05:46:00;;;;;;;0.8;0.8;;;;;;;10.8;100.0;99660;;;;
2022/11/16 05:47:00;;;;;;;0.8;0.8;;;;;;;10.8;100.0;99660;;;;
2022/11/16 05:48:00;;;;;;;0.8;0.8;;;;;;;10.8;100.0;99660;;;;
2022/11/16 05:49:00;;;;;;;0.8;0.8;;;;;;;10.8;100.0;99660;;;;
2022/11/16 05:50:00;;;;;;;0.8;0.8;;;;;;;10.8;100.0;99660;;;;
2022/11/16 05:51:00;;;;;;;0.8;0.8;;;;;;;10.7;100.0;99660;;;;
2022/11/16 05:52:00;;;;;;;0.8;0.8;;;;;;;10.7;100.0;99660;;;;
2022/11/16 05:53:00;;;;;;;0.8;0.8;;;;;;;10.7;100.0;99660;;;;
2022/11/16 05:54:00;;;;;;;0.8;0.8;;;;;;;10.7;100.0;99660;;;;
2022/11/16 05:55:00;;;;;;;0.8;0.8;;;;;;;10.6;100.0;99660;;;;
2022/11/16 05:56:00;;;;;;;0.8;0.8;;;;;;;10.6;100.0;99660;;;;
2022/11/16 05:57:00;;;;;;;0.8;0.8;;;;;;;10.6;100.0;99660;;;;
2022/11/16 05:58:00;;;;;;;0.8;0.8;;;;;;;10.6;100.0;99660;;;;
2022/11/16 05:59:00;;;;;;;0.8;0.8;;;;;;;10.6;100.0;99650;;;;
2022/11/16 06:00:00;;;;;;;0.8;0.8;;;;;;;10.6;100.0;99650;;;;
2022/11/16 06:01:00;;;;;;;0.8;0.8;;;;;;;10.5;100.0;99650;;;;
2022/11/16 06:02:00;;;;;;;0.8;0.8;;;;;;;10.5;100.0;99650;;;;
2022/11/16 06:03:00;;;;;;;0.8;0.8;;;;;;;10.3;100.0;99650;;;;
2022/11/16 06:04:00;;;;;;;0.8;0.8;;;;;;;10.3;100.0;99650;;;;
2022/11/16 06:05:00;;;;;;;0.8;0.8;;;;;;;10.4;100.0;99650;;;;
2022/11/16 06:06:00;;;;;;;0.8;0.8;;;;;;;10.4;100.0;99650;;;;
2022/11/16 06:07:00;;;;;;;0.8;0.8;;;;;;;10.4;100.0;99650;;;;
2022/11/16 06:08:00;;;;;;;0.8;0.8;;;;;;;10.4;100.0;99650;;;;
2022/11/16 06:09:00;;;;;;;0.8;0.8;;;;;;;10.3;100.0;99660;;;;
2022/11/16 06:10:00;;;;;;;0.8;0.8;;;;;;;10.3;100.0;99660;;;;
2022/11/16 06:11:00;;;;;;;0.8;0.8;;;;;;;10.2;100.0;99660;;;;
2022/11/16 06:12:00;;;;;;;0.8;0.8;;;;;;;10.2;100.0;99660;;;;
2022/11/16 06:13:00;;;;;;;0.8;0.8;;;;;;;10.1;100.0;99660;;;;
2022/11/16 06:14:00;;;;;;;0.8;0.8;;;;;;;10.1;100.0;99660;;;;
2022/11/16 06:15:00;;;;;;;0.8;0.8;;;;;;;10.2;100.0;99670;;;;
2022/11/16 06:16:00;;;;;;;0.8;0.8;;;;;;;10.2;100.0;99670;;;;
2022/11/16 06:17:00;;;;;;;0.8;0.8;;;;;;;10.1;100.0;99670;;;;
2022/11/16 06:18:00;;;;;;;0.8;0.8;;;;;;;10.1;100.0;99670;;;;
2022/11/16 06:19:00;;;;;;;0.8;0.8;;;;;;;10.2;100.0;99680;;;;
2022/11/16 06:20:00;;;;;;;0.8;0.8;;;;;;;10.2;100.0;99680;;;;
2022/11/16 06:21:00;;;;;;;0.8;0.8;;;;;;;10.2;100.0;99680;;;;
2022/11/16 06:22:00;;;;;;;0.8;0.8;;;;;;;10.2;100.0;99680;;;;
2022/11/16 06:23:00;;;;;;;0.8;0.8;;;;;;;10.1;100.0;99680;;;;
2022/11/16 06:24:01;;;;;;;0.8;0.8;;;;;;;10.1;100.0;99680;;;;
2022/11/16 06:25:00;;;;;;;0.8;0.8;;;;;;;9.9;100.0;99680;;;;
2022/11/16 06:26:00;;;;;;;0.8;0.8;;;;;;;9.9;100.0;99680;;;;
2022/11/16 06:27:00;;;;;;;0.8;0.8;;;;;;;10.0;100.0;99690;;;;
2022/11/16 06:28:06;;;;;;;0.8;0.8;;;;;;;10.0;100.0;99690;;;;
2022/11/16 06:29:00;;;;;;;0.8;0.8;;;;;;;9.9;100.0;99690;;;;
2022/11/16 06:30:00;;;;;;;0.8;0.8;;;;;;;9.9;100.0;99690;;;;
2022/11/16 06:31:00;;;;;;;0.8;0.8;;;;;;;9.9;100.0;99690;;;;
2022/11/16 06:32:00;;;;;;;0.8;0.8;;;;;;;9.9;100.0;99690;;;;
2022/11/16 06:33:00;;;;;;;0.8;0.8;;;;;;;9.9;100.0;99690;;;;
2022/11/16 06:34:00;;;;;;;0.8;0.8;;;;;;;9.9;100.0;99690;;;;
2022/11/16 06:35:00;;;;;;;0.8;0.8;;;;;;;9.8;100.0;99690;;;;
2022/11/16 06:36:00;;;;;;;0.8;0.8;;;;;;;9.8;100.0;99690;;;;
2022/11/16 06:37:00;;;;;;;0.8;0.8;;;;;;;9.9;100.0;99690;;;;
2022/11/16 06:38:00;;;;;;;0.8;0.8;;;;;;;9.9;100.0;99690;;;;
2022/11/16 06:39:00;;;;;;;0.9;0.9;;;;;;;9.9;100.0;99700;;;;
2022/11/16 06:40:00;;;;;;;0.9;0.9;;;;;;;9.9;100.0;99700;;;;
2022/11/16 06:41:00;;;;;;;0.9;0.9;;;;;;;9.9;100.0;99700;;;;
2022/11/16 06:42:00;;;;;;;0.9;0.9;;;;;;;9.9;100.0;99700;;;;
2022/11/16 06:43:00;;;;;;;0.9;0.9;;;;;;;9.9;100.0;99700;;;;
2022/11/16 06:44:00;;;;;;;0.9;0.9;;;;;;;9.9;100.0;99700;;;;
2022/11/16 06:45:00;;;;;;;0.9;0.9;;;;;;;9.8;100.0;99700;;;;
2022/11/16 06:46:00;;;;;;;0.9;0.9;;;;;;;9.8;100.0;99700;;;;
2022/11/16 06:47:00;;;;;;;0.9;0.9;;;;;;;9.7;100.0;99700;;;;
2022/11/16 06:48:00;;;;;;;0.9;0.9;;;;;;;9.7;100.0;99700;;;;
2022/11/16 06:49:00;;;;;;;0.9;0.9;;;;;;;9.7;100.0;99700;;;;
2022/11/16 06:50:00;;;;;;;0.9;0.9;;;;;;;9.7;100.0;99700;;;;
2022/11/16 06:51:00;;;;;;;0.9;0.9;;;;;;;9.6;100.0;99710;;;;
2022/11/16 06:52:00;;;;;;;0.9;0.9;;;;;;;9.6;100.0;99710;;;;
2022/11/16 06:53:00;;;;;;;0.9;0.9;;;;;;;9.6;100.0;99710;;;;
2022/11/16 06:54:00;;;;;;;0.9;0.9;;;;;;;9.6;100.0;99710;;;;
2022/11/16 06:55:00;;;;;;;0.9;0.9;;;;;;;9.6;100.0;99720;;;;
2022/11/16 06:56:01;;;;;;;0.9;0.9;;;;;;;9.6;100.0;99720;;;;
2022/11/16 06:57:00;;;;;;;0.9;0.9;;;;;;;9.6;100.0;99720;;;;
2022/11/16 06:58:00;;;;;;;0.9;0.9;;;;;;;9.6;100.0;99720;;;;
2022/11/16 06:59:00;;;;;;;0.9;0.9;;;;;;;9.6;100.0;99720;;;;
2022/11/16 07:00:00;;;;;;;0.9;0.9;;;;;;;9.6;100.0;99720;;;;
2022/11/16 07:01:07;;;;;;;0.9;0.9;;;;;;;9.6;100.0;99720;;;;
2022/11/16 07:02:00;;;;;;;0.9;0.9;;;;;;;9.6;100.0;99720;;;;
2022/11/16 07:03:02;;;;;;;0.9;0.9;;;;;;;9.5;100.0;99720;;;;
2022/11/16 07:04:00;;;;;;;0.9;0.9;;;;;;;9.5;100.0;99720;;;;
2022/11/16 07:05:04;;;;;;;0.9;0.9;;;;;;;9.6;100.0;99730;;;;
2022/11/16 07:06:04;;;;;;;0.9;0.9;;;;;;;9.6;100.0;99730;;;;
2022/11/16 07:07:00;;;;;;;0.9;0.9;;;;;;;9.5;100.0;99730;;;;
2022/11/16 07:08:00;;;;;;;0.9;0.9;;;;;;;9.5;100.0;99730;;;;
2022/11/16 07:09:00;;;;;;;0.9;0.9;;;;;;;9.4;100.0;99730;;;;